sensor_id;sensor_type;location;lat;lon;timestamp;P1;durP1;ratioP1;P2;durP2;ratioP2
21505;SDS011;10914;48.886;9.394;2024-02-23T00:02:19;21.63;;;20.73;;
21505;SDS011;10914;48.886;9.394;2024-02-23T00:04:44;22.03;;;21.00;;
21505;SDS011;10914;48.886;9.394;2024-02-23T00:07:10;21.80;;;20.80;;
21505;SDS011;10914;48.886;9.394;2024-02-23T00:09:35;22.30;;;21.10;;
21505;SDS011;10914;48.886;9.394;2024-02-23T00:12:00;21.80;;;20.90;;
21505;SDS011;10914;48.886;9.394;2024-02-23T00:14:25;21.75;;;20.80;;
21505;SDS011;10914;48.886;9.394;2024-02-23T00:16:50;21.35;;;20.42;;
21505;SDS011;10914;48.886;9.394;2024-02-23T00:19:15;21.73;;;20.83;;
21505;SDS011;10914;48.886;9.394;2024-02-23T00:21:43;21.88;;;20.77;;
21505;SDS011;10914;48.886;9.394;2024-02-23T00:24:12;21.83;;;20.83;;
21505;SDS011;10914;48.886;9.394;2024-02-23T00:26:37;22.02;;;21.02;;
21505;SDS011;10914;48.886;9.394;2024-02-23T00:29:02;21.80;;;20.80;;
21505;SDS011;10914;48.886;9.394;2024-02-23T00:31:28;22.00;;;21.00;;
21505;SDS011;10914;48.886;9.394;2024-02-23T00:33:53;22.13;;;21.10;;
21505;SDS011;10914;48.886;9.394;2024-02-23T00:36:18;22.38;;;21.38;;
21505;SDS011;10914;48.886;9.394;2024-02-23T00:38:43;21.70;;;20.70;;
21505;SDS011;10914;48.886;9.394;2024-02-23T00:41:08;22.75;;;21.75;;
21505;SDS011;10914;48.886;9.394;2024-02-23T00:43:37;22.10;;;21.00;;
21505;SDS011;10914;48.886;9.394;2024-02-23T00:46:03;21.95;;;20.95;;
21505;SDS011;10914;48.886;9.394;2024-02-23T00:48:28;21.45;;;20.45;;
21505;SDS011;10914;48.886;9.394;2024-02-23T00:50:53;21.90;;;20.90;;
21505;SDS011;10914;48.886;9.394;2024-02-23T00:53:18;21.45;;;20.45;;
21505;SDS011;10914;48.886;9.394;2024-02-23T00:55:45;21.40;;;20.50;;
21505;SDS011;10914;48.886;9.394;2024-02-23T00:58:10;22.30;;;21.23;;
21505;SDS011;10914;48.886;9.394;2024-02-23T01:00:36;22.42;;;21.30;;
21505;SDS011;10914;48.886;9.394;2024-02-23T01:03:01;22.40;;;21.30;;
21505;SDS011;10914;48.886;9.394;2024-02-23T01:05:26;22.10;;;21.08;;
21505;SDS011;10914;48.886;9.394;2024-02-23T01:07:51;22.30;;;21.20;;
21505;SDS011;10914;48.886;9.394;2024-02-23T01:10:17;22.58;;;21.48;;
21505;SDS011;10914;48.886;9.394;2024-02-23T01:12:42;22.88;;;21.67;;
21505;SDS011;10914;48.886;9.394;2024-02-23T01:15:07;22.10;;;21.08;;
21505;SDS011;10914;48.886;9.394;2024-02-23T01:17:32;22.77;;;21.55;;
21505;SDS011;10914;48.886;9.394;2024-02-23T01:19:57;22.55;;;21.48;;
21505;SDS011;10914;48.886;9.394;2024-02-23T01:22:23;22.75;;;21.65;;
21505;SDS011;10914;48.886;9.394;2024-02-23T01:24:48;22.50;;;21.38;;
21505;SDS011;10914;48.886;9.394;2024-02-23T01:27:13;22.70;;;21.55;;
21505;SDS011;10914;48.886;9.394;2024-02-23T01:29:38;22.42;;;21.33;;
21505;SDS011;10914;48.886;9.394;2024-02-23T01:32:04;22.60;;;21.50;;
21505;SDS011;10914;48.886;9.394;2024-02-23T01:34:29;22.60;;;21.40;;
21505;SDS011;10914;48.886;9.394;2024-02-23T01:36:55;22.27;;;21.27;;
21505;SDS011;10914;48.886;9.394;2024-02-23T01:39:20;22.27;;;21.17;;
21505;SDS011;10914;48.886;9.394;2024-02-23T01:41:45;22.57;;;21.47;;
21505;SDS011;10914;48.886;9.394;2024-02-23T01:44:10;22.88;;;21.42;;
21505;SDS011;10914;48.886;9.394;2024-02-23T01:46:36;22.45;;;21.38;;
21505;SDS011;10914;48.886;9.394;2024-02-23T01:49:01;22.90;;;21.50;;
21505;SDS011;10914;48.886;9.394;2024-02-23T01:51:26;23.48;;;22.17;;
21505;SDS011;10914;48.886;9.394;2024-02-23T01:53:51;23.10;;;21.80;;
21505;SDS011;10914;48.886;9.394;2024-02-23T01:56:16;23.02;;;21.80;;
21505;SDS011;10914;48.886;9.394;2024-02-23T01:58:44;22.08;;;20.92;;
21505;SDS011;10914;48.886;9.394;2024-02-23T02:01:10;22.75;;;21.65;;
21505;SDS011;10914;48.886;9.394;2024-02-23T02:03:37;22.33;;;21.20;;
21505;SDS011;10914;48.886;9.394;2024-02-23T02:06:03;23.02;;;21.83;;
21505;SDS011;10914;48.886;9.394;2024-02-23T02:08:29;22.38;;;21.38;;
21505;SDS011;10914;48.886;9.394;2024-02-23T02:10:54;22.77;;;21.50;;
21505;SDS011;10914;48.886;9.394;2024-02-23T02:13:19;22.70;;;21.60;;
21505;SDS011;10914;48.886;9.394;2024-02-23T02:15:44;22.52;;;21.48;;
21505;SDS011;10914;48.886;9.394;2024-02-23T02:18:09;22.52;;;21.38;;
21505;SDS011;10914;48.886;9.394;2024-02-23T02:20:35;23.27;;;22.17;;
21505;SDS011;10914;48.886;9.394;2024-02-23T02:23:01;23.02;;;21.92;;
21505;SDS011;10914;48.886;9.394;2024-02-23T02:25:26;22.65;;;21.55;;
21505;SDS011;10914;48.886;9.394;2024-02-23T02:27:51;22.70;;;21.50;;
21505;SDS011;10914;48.886;9.394;2024-02-23T02:30:16;22.40;;;21.30;;
21505;SDS011;10914;48.886;9.394;2024-02-23T02:32:41;22.25;;;21.25;;
21505;SDS011;10914;48.886;9.394;2024-02-23T02:35:07;22.30;;;21.13;;
21505;SDS011;10914;48.886;9.394;2024-02-23T02:37:32;22.30;;;21.17;;
21505;SDS011;10914;48.886;9.394;2024-02-23T02:39:57;22.15;;;21.02;;
21505;SDS011;10914;48.886;9.394;2024-02-23T02:42:22;22.75;;;21.55;;
21505;SDS011;10914;48.886;9.394;2024-02-23T02:44:47;22.42;;;21.33;;
21505;SDS011;10914;48.886;9.394;2024-02-23T02:47:12;22.42;;;21.23;;
21505;SDS011;10914;48.886;9.394;2024-02-23T02:49:39;22.42;;;21.20;;
21505;SDS011;10914;48.886;9.394;2024-02-23T02:52:04;23.00;;;21.60;;
21505;SDS011;10914;48.886;9.394;2024-02-23T02:54:29;23.38;;;22.17;;
21505;SDS011;10914;48.886;9.394;2024-02-23T02:56:55;22.35;;;21.35;;
21505;SDS011;10914;48.886;9.394;2024-02-23T02:59:20;22.65;;;21.45;;
21505;SDS011;10914;48.886;9.394;2024-02-23T03:01:45;22.52;;;21.42;;
21505;SDS011;10914;48.886;9.394;2024-02-23T03:04:11;22.15;;;21.05;;
21505;SDS011;10914;48.886;9.394;2024-02-23T03:06:37;22.25;;;21.13;;
21505;SDS011;10914;48.886;9.394;2024-02-23T03:09:02;22.40;;;21.40;;
21505;SDS011;10914;48.886;9.394;2024-02-23T03:11:27;22.90;;;21.70;;
21505;SDS011;10914;48.886;9.394;2024-02-23T03:13:53;23.10;;;21.90;;
21505;SDS011;10914;48.886;9.394;2024-02-23T03:16:18;22.50;;;21.20;;
21505;SDS011;10914;48.886;9.394;2024-02-23T03:18:43;23.25;;;22.00;;
21505;SDS011;10914;48.886;9.394;2024-02-23T03:21:08;23.33;;;22.25;;
21505;SDS011;10914;48.886;9.394;2024-02-23T03:23:34;23.15;;;22.05;;
21505;SDS011;10914;48.886;9.394;2024-02-23T03:25:59;23.42;;;22.27;;
21505;SDS011;10914;48.886;9.394;2024-02-23T03:28:25;24.35;;;22.80;;
21505;SDS011;10914;48.886;9.394;2024-02-23T03:30:50;23.30;;;22.10;;
21505;SDS011;10914;48.886;9.394;2024-02-23T03:33:15;23.50;;;22.30;;
21505;SDS011;10914;48.886;9.394;2024-02-23T03:35:40;23.90;;;22.75;;
21505;SDS011;10914;48.886;9.394;2024-02-23T03:38:05;23.90;;;22.67;;
21505;SDS011;10914;48.886;9.394;2024-02-23T03:40:30;23.53;;;22.13;;
21505;SDS011;10914;48.886;9.394;2024-02-23T03:42:56;23.00;;;21.70;;
21505;SDS011;10914;48.886;9.394;2024-02-23T03:45:21;23.70;;;22.40;;
21505;SDS011;10914;48.886;9.394;2024-02-23T03:47:46;23.30;;;22.20;;
21505;SDS011;10914;48.886;9.394;2024-02-23T03:50:11;23.75;;;22.55;;
21505;SDS011;10914;48.886;9.394;2024-02-23T03:52:37;23.40;;;22.23;;
21505;SDS011;10914;48.886;9.394;2024-02-23T03:55:02;22.87;;;21.77;;
21505;SDS011;10914;48.886;9.394;2024-02-23T03:57:28;23.85;;;22.65;;
21505;SDS011;10914;48.886;9.394;2024-02-23T03:59:54;23.17;;;21.95;;
21505;SDS011;10914;48.886;9.394;2024-02-23T04:02:19;22.95;;;21.85;;
21505;SDS011;10914;48.886;9.394;2024-02-23T04:04:44;22.75;;;21.48;;
21505;SDS011;10914;48.886;9.394;2024-02-23T04:07:09;23.38;;;22.20;;
21505;SDS011;10914;48.886;9.394;2024-02-23T04:09:34;23.50;;;22.30;;
21505;SDS011;10914;48.886;9.394;2024-02-23T04:12:00;23.38;;;22.02;;
21505;SDS011;10914;48.886;9.394;2024-02-23T04:14:25;23.07;;;21.97;;
21505;SDS011;10914;48.886;9.394;2024-02-23T04:16:50;22.92;;;21.73;;
21505;SDS011;10914;48.886;9.394;2024-02-23T04:19:15;23.20;;;22.00;;
21505;SDS011;10914;48.886;9.394;2024-02-23T04:21:40;23.52;;;22.33;;
21505;SDS011;10914;48.886;9.394;2024-02-23T04:24:05;22.75;;;21.70;;
21505;SDS011;10914;48.886;9.394;2024-02-23T04:26:32;23.40;;;22.38;;
21505;SDS011;10914;48.886;9.394;2024-02-23T04:28:57;23.23;;;21.83;;
21505;SDS011;10914;48.886;9.394;2024-02-23T04:31:22;23.23;;;21.90;;
21505;SDS011;10914;48.886;9.394;2024-02-23T04:33:47;24.42;;;22.90;;
21505;SDS011;10914;48.886;9.394;2024-02-23T04:36:12;23.30;;;22.17;;
21505;SDS011;10914;48.886;9.394;2024-02-23T04:38:38;23.27;;;22.23;;
21505;SDS011;10914;48.886;9.394;2024-02-23T04:41:03;23.37;;;22.27;;
21505;SDS011;10914;48.886;9.394;2024-02-23T04:43:32;23.85;;;22.63;;
21505;SDS011;10914;48.886;9.394;2024-02-23T04:45:57;24.23;;;22.88;;
21505;SDS011;10914;48.886;9.394;2024-02-23T04:48:22;23.90;;;22.67;;
21505;SDS011;10914;48.886;9.394;2024-02-23T04:50:47;24.15;;;22.73;;
21505;SDS011;10914;48.886;9.394;2024-02-23T04:53:13;24.23;;;22.75;;
21505;SDS011;10914;48.886;9.394;2024-02-23T04:55:38;23.90;;;22.70;;
21505;SDS011;10914;48.886;9.394;2024-02-23T04:58:03;23.65;;;22.55;;
21505;SDS011;10914;48.886;9.394;2024-02-23T05:00:28;23.55;;;22.38;;
21505;SDS011;10914;48.886;9.394;2024-02-23T05:02:58;23.67;;;22.48;;
21505;SDS011;10914;48.886;9.394;2024-02-23T05:05:23;23.90;;;22.73;;
21505;SDS011;10914;48.886;9.394;2024-02-23T05:07:48;24.07;;;22.73;;
21505;SDS011;10914;48.886;9.394;2024-02-23T05:10:14;24.20;;;23.00;;
21505;SDS011;10914;48.886;9.394;2024-02-23T05:12:39;24.30;;;23.10;;
21505;SDS011;10914;48.886;9.394;2024-02-23T05:15:04;24.35;;;23.15;;
21505;SDS011;10914;48.886;9.394;2024-02-23T05:17:29;24.50;;;23.30;;
21505;SDS011;10914;48.886;9.394;2024-02-23T05:19:55;23.42;;;22.13;;
21505;SDS011;10914;48.886;9.394;2024-02-23T05:22:20;23.92;;;22.83;;
21505;SDS011;10914;48.886;9.394;2024-02-23T05:24:45;23.85;;;22.50;;
21505;SDS011;10914;48.886;9.394;2024-02-23T05:27:10;24.02;;;22.67;;
21505;SDS011;10914;48.886;9.394;2024-02-23T05:29:36;24.02;;;22.83;;
21505;SDS011;10914;48.886;9.394;2024-02-23T05:32:01;23.52;;;22.33;;
21505;SDS011;10914;48.886;9.394;2024-02-23T05:34:26;23.00;;;21.90;;
21505;SDS011;10914;48.886;9.394;2024-02-23T05:36:51;23.60;;;22.27;;
21505;SDS011;10914;48.886;9.394;2024-02-23T05:39:16;23.30;;;22.20;;
21505;SDS011;10914;48.886;9.394;2024-02-23T05:41:42;23.67;;;22.45;;
21505;SDS011;10914;48.886;9.394;2024-02-23T05:44:08;23.60;;;22.33;;
21505;SDS011;10914;48.886;9.394;2024-02-23T05:46:34;23.90;;;22.70;;
21505;SDS011;10914;48.886;9.394;2024-02-23T05:48:59;24.70;;;23.23;;
21505;SDS011;10914;48.886;9.394;2024-02-23T05:51:24;23.25;;;22.15;;
21505;SDS011;10914;48.886;9.394;2024-02-23T05:53:49;22.97;;;21.93;;
21505;SDS011;10914;48.886;9.394;2024-02-23T05:56:15;24.10;;;22.80;;
21505;SDS011;10914;48.886;9.394;2024-02-23T05:58:40;23.88;;;22.67;;
21505;SDS011;10914;48.886;9.394;2024-02-23T06:01:05;24.48;;;23.10;;
21505;SDS011;10914;48.886;9.394;2024-02-23T06:03:32;24.17;;;22.80;;
21505;SDS011;10914;48.886;9.394;2024-02-23T06:05:57;23.63;;;22.33;;
21505;SDS011;10914;48.886;9.394;2024-02-23T06:08:22;23.58;;;22.17;;
21505;SDS011;10914;48.886;9.394;2024-02-23T06:10:47;23.38;;;22.08;;
21505;SDS011;10914;48.886;9.394;2024-02-23T06:13:12;24.00;;;22.47;;
21505;SDS011;10914;48.886;9.394;2024-02-23T06:15:38;23.65;;;22.25;;
21505;SDS011;10914;48.886;9.394;2024-02-23T06:18:03;23.52;;;22.23;;
21505;SDS011;10914;48.886;9.394;2024-02-23T06:20:29;24.05;;;22.65;;
21505;SDS011;10914;48.886;9.394;2024-02-23T06:22:54;23.55;;;22.15;;
21505;SDS011;10914;48.886;9.394;2024-02-23T06:25:19;23.83;;;22.63;;
21505;SDS011;10914;48.886;9.394;2024-02-23T06:27:45;23.65;;;22.20;;
21505;SDS011;10914;48.886;9.394;2024-02-23T06:30:10;24.55;;;22.90;;
21505;SDS011;10914;48.886;9.394;2024-02-23T06:32:36;24.80;;;23.35;;
21505;SDS011;10914;48.886;9.394;2024-02-23T06:35:01;24.50;;;23.30;;
21505;SDS011;10914;48.886;9.394;2024-02-23T06:37:27;24.58;;;23.10;;
21505;SDS011;10914;48.886;9.394;2024-02-23T06:39:53;25.02;;;23.52;;
21505;SDS011;10914;48.886;9.394;2024-02-23T06:42:20;24.55;;;23.20;;
21505;SDS011;10914;48.886;9.394;2024-02-23T06:44:45;24.48;;;23.05;;
21505;SDS011;10914;48.886;9.394;2024-02-23T06:47:10;24.42;;;23.08;;
21505;SDS011;10914;48.886;9.394;2024-02-23T06:49:35;23.92;;;22.73;;
21505;SDS011;10914;48.886;9.394;2024-02-23T06:52:00;23.50;;;22.30;;
21505;SDS011;10914;48.886;9.394;2024-02-23T06:54:26;23.40;;;22.20;;
21505;SDS011;10914;48.886;9.394;2024-02-23T06:56:51;23.73;;;22.30;;
21505;SDS011;10914;48.886;9.394;2024-02-23T06:59:16;22.70;;;21.48;;
21505;SDS011;10914;48.886;9.394;2024-02-23T07:01:48;23.60;;;22.27;;
21505;SDS011;10914;48.886;9.394;2024-02-23T07:04:13;23.05;;;21.95;;
21505;SDS011;10914;48.886;9.394;2024-02-23T07:06:39;23.92;;;22.63;;
21505;SDS011;10914;48.886;9.394;2024-02-23T07:09:04;23.77;;;22.65;;
21505;SDS011;10914;48.886;9.394;2024-02-23T07:11:29;23.58;;;22.25;;
21505;SDS011;10914;48.886;9.394;2024-02-23T07:13:54;24.52;;;23.20;;
21505;SDS011;10914;48.886;9.394;2024-02-23T07:16:20;24.07;;;22.97;;
21505;SDS011;10914;48.886;9.394;2024-02-23T07:18:45;23.13;;;22.02;;
21505;SDS011;10914;48.886;9.394;2024-02-23T07:21:10;23.40;;;22.08;;
21505;SDS011;10914;48.886;9.394;2024-02-23T07:23:35;22.98;;;21.85;;
21505;SDS011;10914;48.886;9.394;2024-02-23T07:26:00;23.38;;;22.27;;
21505;SDS011;10914;48.886;9.394;2024-02-23T07:28:25;23.58;;;22.48;;
21505;SDS011;10914;48.886;9.394;2024-02-23T07:30:51;24.33;;;22.63;;
21505;SDS011;10914;48.886;9.394;2024-02-23T07:33:17;24.50;;;23.30;;
21505;SDS011;10914;48.886;9.394;2024-02-23T07:35:43;22.90;;;21.80;;
21505;SDS011;10914;48.886;9.394;2024-02-23T07:38:08;24.15;;;22.88;;
21505;SDS011;10914;48.886;9.394;2024-02-23T07:40:33;24.33;;;23.00;;
21505;SDS011;10914;48.886;9.394;2024-02-23T07:42:59;24.58;;;23.38;;
21505;SDS011;10914;48.886;9.394;2024-02-23T07:45:24;27.05;;;25.48;;
21505;SDS011;10914;48.886;9.394;2024-02-23T07:47:50;25.95;;;24.63;;
21505;SDS011;10914;48.886;9.394;2024-02-23T07:50:15;25.17;;;23.87;;
21505;SDS011;10914;48.886;9.394;2024-02-23T07:52:43;25.60;;;24.30;;
21505;SDS011;10914;48.886;9.394;2024-02-23T07:55:08;25.42;;;24.00;;
21505;SDS011;10914;48.886;9.394;2024-02-23T07:57:33;23.88;;;22.67;;
21505;SDS011;10914;48.886;9.394;2024-02-23T07:59:59;25.02;;;23.25;;
21505;SDS011;10914;48.886;9.394;2024-02-23T08:02:24;23.80;;;22.55;;
21505;SDS011;10914;48.886;9.394;2024-02-23T08:04:50;24.23;;;23.10;;
21505;SDS011;10914;48.886;9.394;2024-02-23T08:07:15;23.42;;;22.08;;
21505;SDS011;10914;48.886;9.394;2024-02-23T08:09:40;24.23;;;22.93;;
21505;SDS011;10914;48.886;9.394;2024-02-23T08:12:05;23.65;;;22.48;;
21505;SDS011;10914;48.886;9.394;2024-02-23T08:14:31;23.55;;;22.27;;
21505;SDS011;10914;48.886;9.394;2024-02-23T08:16:57;24.05;;;22.95;;
21505;SDS011;10914;48.886;9.394;2024-02-23T08:19:22;24.57;;;23.37;;
21505;SDS011;10914;48.886;9.394;2024-02-23T08:21:48;25.23;;;23.83;;
21505;SDS011;10914;48.886;9.394;2024-02-23T08:24:13;25.77;;;24.47;;
21505;SDS011;10914;48.886;9.394;2024-02-23T08:26:38;24.10;;;22.80;;
21505;SDS011;10914;48.886;9.394;2024-02-23T08:29:03;24.40;;;23.13;;
21505;SDS011;10914;48.886;9.394;2024-02-23T08:31:29;23.90;;;22.42;;
21505;SDS011;10914;48.886;9.394;2024-02-23T08:33:54;23.52;;;22.42;;
21505;SDS011;10914;48.886;9.394;2024-02-23T08:36:20;23.85;;;22.50;;
21505;SDS011;10914;48.886;9.394;2024-02-23T08:38:45;23.65;;;22.25;;
21505;SDS011;10914;48.886;9.394;2024-02-23T08:41:10;24.33;;;23.05;;
21505;SDS011;10914;48.886;9.394;2024-02-23T08:43:35;24.73;;;23.47;;
21505;SDS011;10914;48.886;9.394;2024-02-23T08:46:01;24.20;;;22.88;;
21505;SDS011;10914;48.886;9.394;2024-02-23T08:48:26;23.85;;;22.65;;
21505;SDS011;10914;48.886;9.394;2024-02-23T08:50:51;24.08;;;22.88;;
21505;SDS011;10914;48.886;9.394;2024-02-23T08:53:16;24.13;;;22.83;;
21505;SDS011;10914;48.886;9.394;2024-02-23T08:55:42;24.42;;;22.90;;
21505;SDS011;10914;48.886;9.394;2024-02-23T08:58:07;24.47;;;22.97;;
21505;SDS011;10914;48.886;9.394;2024-02-23T09:00:32;23.83;;;22.67;;
21505;SDS011;10914;48.886;9.394;2024-02-23T09:02:57;23.37;;;22.27;;
21505;SDS011;10914;48.886;9.394;2024-02-23T09:05:22;23.60;;;22.50;;
21505;SDS011;10914;48.886;9.394;2024-02-23T09:07:48;24.17;;;22.87;;
21505;SDS011;10914;48.886;9.394;2024-02-23T09:10:13;24.48;;;23.10;;
21505;SDS011;10914;48.886;9.394;2024-02-23T09:12:38;24.33;;;23.10;;
21505;SDS011;10914;48.886;9.394;2024-02-23T09:15:03;25.07;;;23.27;;
21505;SDS011;10914;48.886;9.394;2024-02-23T09:17:29;24.40;;;23.10;;
21505;SDS011;10914;48.886;9.394;2024-02-23T09:19:54;24.20;;;22.90;;
21505;SDS011;10914;48.886;9.394;2024-02-23T09:22:19;24.90;;;23.60;;
21505;SDS011;10914;48.886;9.394;2024-02-23T09:24:44;25.50;;;24.17;;
21505;SDS011;10914;48.886;9.394;2024-02-23T09:27:09;24.27;;;22.98;;
21505;SDS011;10914;48.886;9.394;2024-02-23T09:29:35;24.15;;;22.95;;
21505;SDS011;10914;48.886;9.394;2024-02-23T09:32:00;25.42;;;24.13;;
21505;SDS011;10914;48.886;9.394;2024-02-23T09:34:26;24.73;;;23.52;;
21505;SDS011;10914;48.886;9.394;2024-02-23T09:36:51;26.73;;;25.17;;
21505;SDS011;10914;48.886;9.394;2024-02-23T09:39:16;25.77;;;24.43;;
21505;SDS011;10914;48.886;9.394;2024-02-23T09:41:42;26.40;;;24.90;;
21505;SDS011;10914;48.886;9.394;2024-02-23T09:44:07;24.85;;;23.58;;
21505;SDS011;10914;48.886;9.394;2024-02-23T09:46:34;26.23;;;24.73;;
21505;SDS011;10914;48.886;9.394;2024-02-23T09:49:01;24.60;;;23.35;;
21505;SDS011;10914;48.886;9.394;2024-02-23T09:51:28;23.63;;;22.15;;
21505;SDS011;10914;48.886;9.394;2024-02-23T09:53:53;23.25;;;21.92;;
21505;SDS011;10914;48.886;9.394;2024-02-23T09:56:19;23.00;;;21.48;;
21505;SDS011;10914;48.886;9.394;2024-02-23T09:58:46;22.63;;;21.30;;
21505;SDS011;10914;48.886;9.394;2024-02-23T10:01:12;21.83;;;20.60;;
21505;SDS011;10914;48.886;9.394;2024-02-23T10:03:37;22.38;;;21.23;;
21505;SDS011;10914;48.886;9.394;2024-02-23T10:06:03;22.80;;;21.35;;
21505;SDS011;10914;48.886;9.394;2024-02-23T10:08:29;22.92;;;21.60;;
21505;SDS011;10914;48.886;9.394;2024-02-23T10:10:55;23.13;;;21.70;;
21505;SDS011;10914;48.886;9.394;2024-02-23T10:13:22;23.60;;;22.30;;
21505;SDS011;10914;48.886;9.394;2024-02-23T10:15:48;23.45;;;22.13;;
21505;SDS011;10914;48.886;9.394;2024-02-23T10:18:14;23.85;;;22.45;;
21505;SDS011;10914;48.886;9.394;2024-02-23T10:20:40;23.35;;;22.05;;
21505;SDS011;10914;48.886;9.394;2024-02-23T10:23:05;22.70;;;21.42;;
21505;SDS011;10914;48.886;9.394;2024-02-23T10:25:33;22.55;;;21.45;;
21505;SDS011;10914;48.886;9.394;2024-02-23T10:28:04;23.02;;;21.83;;
21505;SDS011;10914;48.886;9.394;2024-02-23T10:30:29;22.80;;;21.60;;
21505;SDS011;10914;48.886;9.394;2024-02-23T10:32:55;23.00;;;21.67;;
21505;SDS011;10914;48.886;9.394;2024-02-23T10:35:20;21.83;;;20.70;;
21505;SDS011;10914;48.886;9.394;2024-02-23T10:37:48;22.33;;;21.10;;
21505;SDS011;10914;48.886;9.394;2024-02-23T10:40:14;22.35;;;20.85;;
21505;SDS011;10914;48.886;9.394;2024-02-23T10:42:41;22.45;;;21.10;;
21505;SDS011;10914;48.886;9.394;2024-02-23T10:45:09;22.15;;;20.83;;
21505;SDS011;10914;48.886;9.394;2024-02-23T10:47:34;22.50;;;21.00;;
21505;SDS011;10914;48.886;9.394;2024-02-23T10:50:00;21.30;;;20.20;;
21505;SDS011;10914;48.886;9.394;2024-02-23T10:52:25;21.98;;;20.67;;
21505;SDS011;10914;48.886;9.394;2024-02-23T10:54:51;22.30;;;21.10;;
21505;SDS011;10914;48.886;9.394;2024-02-23T10:57:17;22.00;;;20.70;;
21505;SDS011;10914;48.886;9.394;2024-02-23T10:59:45;21.90;;;20.65;;
21505;SDS011;10914;48.886;9.394;2024-02-23T11:02:11;21.60;;;20.40;;
21505;SDS011;10914;48.886;9.394;2024-02-23T11:04:37;22.17;;;20.70;;
21505;SDS011;10914;48.886;9.394;2024-02-23T11:07:02;21.85;;;20.75;;
21505;SDS011;10914;48.886;9.394;2024-02-23T11:09:32;22.38;;;20.95;;
21505;SDS011;10914;48.886;9.394;2024-02-23T11:11:58;22.33;;;20.90;;
21505;SDS011;10914;48.886;9.394;2024-02-23T11:14:30;21.73;;;20.27;;
21505;SDS011;10914;48.886;9.394;2024-02-23T11:16:57;22.25;;;21.05;;
21505;SDS011;10914;48.886;9.394;2024-02-23T11:19:22;22.70;;;21.40;;
21505;SDS011;10914;48.886;9.394;2024-02-23T11:21:56;23.70;;;22.20;;
21505;SDS011;10914;48.886;9.394;2024-02-23T11:24:25;22.38;;;21.15;;
21505;SDS011;10914;48.886;9.394;2024-02-23T11:26:50;22.67;;;21.20;;
21505;SDS011;10914;48.886;9.394;2024-02-23T11:29:20;22.60;;;21.20;;
21505;SDS011;10914;48.886;9.394;2024-02-23T11:31:46;23.42;;;21.83;;
21505;SDS011;10914;48.886;9.394;2024-02-23T11:34:11;22.25;;;21.15;;
21505;SDS011;10914;48.886;9.394;2024-02-23T11:36:38;22.35;;;21.15;;
21505;SDS011;10914;48.886;9.394;2024-02-23T11:39:03;22.77;;;21.27;;
21505;SDS011;10914;48.886;9.394;2024-02-23T11:41:28;23.10;;;21.70;;
21505;SDS011;10914;48.886;9.394;2024-02-23T11:43:54;22.65;;;21.23;;
21505;SDS011;10914;48.886;9.394;2024-02-23T11:46:28;22.15;;;20.92;;
21505;SDS011;10914;48.886;9.394;2024-02-23T11:48:53;22.77;;;21.50;;
21505;SDS011;10914;48.886;9.394;2024-02-23T11:51:19;22.83;;;21.60;;
21505;SDS011;10914;48.886;9.394;2024-02-23T11:53:45;23.13;;;21.70;;
21505;SDS011;10914;48.886;9.394;2024-02-23T11:56:11;22.88;;;21.58;;
21505;SDS011;10914;48.886;9.394;2024-02-23T11:58:36;22.45;;;21.17;;
21505;SDS011;10914;48.886;9.394;2024-02-23T12:01:03;22.52;;;21.23;;
21505;SDS011;10914;48.886;9.394;2024-02-23T12:03:29;24.35;;;22.95;;
21505;SDS011;10914;48.886;9.394;2024-02-23T12:05:58;22.67;;;21.38;;
21505;SDS011;10914;48.886;9.394;2024-02-23T12:08:25;22.20;;;21.10;;
21505;SDS011;10914;48.886;9.394;2024-02-23T12:10:51;23.35;;;21.95;;
21505;SDS011;10914;48.886;9.394;2024-02-23T12:13:16;22.95;;;21.63;;
21505;SDS011;10914;48.886;9.394;2024-02-23T12:15:41;22.92;;;21.60;;
21505;SDS011;10914;48.886;9.394;2024-02-23T12:18:06;22.53;;;21.17;;
21505;SDS011;10914;48.886;9.394;2024-02-23T12:20:35;23.02;;;21.77;;
21505;SDS011;10914;48.886;9.394;2024-02-23T12:23:00;23.25;;;21.85;;
21505;SDS011;10914;48.886;9.394;2024-02-23T12:25:26;22.63;;;21.38;;
21505;SDS011;10914;48.886;9.394;2024-02-23T12:27:55;22.63;;;21.52;;
21505;SDS011;10914;48.886;9.394;2024-02-23T12:30:20;23.63;;;22.33;;
21505;SDS011;10914;48.886;9.394;2024-02-23T12:32:46;23.10;;;21.80;;
21505;SDS011;10914;48.886;9.394;2024-02-23T12:35:11;22.60;;;21.30;;
21505;SDS011;10914;48.886;9.394;2024-02-23T12:37:37;22.17;;;20.92;;
21505;SDS011;10914;48.886;9.394;2024-02-23T12:40:02;22.30;;;21.00;;
21505;SDS011;10914;48.886;9.394;2024-02-23T12:42:27;21.33;;;20.23;;
21505;SDS011;10914;48.886;9.394;2024-02-23T12:44:52;22.50;;;21.27;;
21505;SDS011;10914;48.886;9.394;2024-02-23T12:47:18;22.00;;;20.90;;
21505;SDS011;10914;48.886;9.394;2024-02-23T12:49:43;22.13;;;20.97;;
21505;SDS011;10914;48.886;9.394;2024-02-23T12:52:08;23.52;;;22.08;;
21505;SDS011;10914;48.886;9.394;2024-02-23T12:54:33;22.27;;;21.20;;
21505;SDS011;10914;48.886;9.394;2024-02-23T12:56:59;22.77;;;21.58;;
21505;SDS011;10914;48.886;9.394;2024-02-23T12:59:24;23.63;;;22.20;;
21505;SDS011;10914;48.886;9.394;2024-02-23T13:01:49;23.83;;;22.35;;
21505;SDS011;10914;48.886;9.394;2024-02-23T13:04:15;23.02;;;21.83;;
21505;SDS011;10914;48.886;9.394;2024-02-23T13:06:40;22.50;;;21.20;;
21505;SDS011;10914;48.886;9.394;2024-02-23T13:09:05;22.23;;;20.98;;
21505;SDS011;10914;48.886;9.394;2024-02-23T13:11:33;22.38;;;21.08;;
21505;SDS011;10914;48.886;9.394;2024-02-23T13:13:58;22.55;;;21.27;;
21505;SDS011;10914;48.886;9.394;2024-02-23T13:16:23;23.85;;;22.45;;
21505;SDS011;10914;48.886;9.394;2024-02-23T13:18:48;23.58;;;22.02;;
21505;SDS011;10914;48.886;9.394;2024-02-23T13:21:14;22.43;;;21.30;;
21505;SDS011;10914;48.886;9.394;2024-02-23T13:23:39;22.90;;;21.65;;
21505;SDS011;10914;48.886;9.394;2024-02-23T13:26:04;23.63;;;22.08;;
21505;SDS011;10914;48.886;9.394;2024-02-23T13:28:29;23.33;;;22.17;;
21505;SDS011;10914;48.886;9.394;2024-02-23T13:30:55;22.70;;;21.30;;
21505;SDS011;10914;48.886;9.394;2024-02-23T13:33:20;22.67;;;21.43;;
21505;SDS011;10914;48.886;9.394;2024-02-23T13:35:47;23.25;;;21.67;;
21505;SDS011;10914;48.886;9.394;2024-02-23T13:38:12;23.02;;;21.63;;
21505;SDS011;10914;48.886;9.394;2024-02-23T13:40:37;21.63;;;20.45;;
21505;SDS011;10914;48.886;9.394;2024-02-23T13:43:02;21.80;;;20.50;;
21505;SDS011;10914;48.886;9.394;2024-02-23T13:45:27;21.75;;;20.30;;
21505;SDS011;10914;48.886;9.394;2024-02-23T13:47:56;20.97;;;19.93;;
21505;SDS011;10914;48.886;9.394;2024-02-23T13:50:21;22.15;;;20.95;;
21505;SDS011;10914;48.886;9.394;2024-02-23T13:52:47;21.55;;;20.35;;
21505;SDS011;10914;48.886;9.394;2024-02-23T13:55:12;23.13;;;21.58;;
21505;SDS011;10914;48.886;9.394;2024-02-23T13:57:38;21.73;;;20.50;;
21505;SDS011;10914;48.886;9.394;2024-02-23T14:00:04;22.03;;;20.57;;
21505;SDS011;10914;48.886;9.394;2024-02-23T14:02:31;23.13;;;21.50;;
21505;SDS011;10914;48.886;9.394;2024-02-23T14:05:00;23.33;;;21.80;;
21505;SDS011;10914;48.886;9.394;2024-02-23T14:07:26;23.92;;;22.02;;
21505;SDS011;10914;48.886;9.394;2024-02-23T14:09:51;22.73;;;21.42;;
21505;SDS011;10914;48.886;9.394;2024-02-23T14:12:16;22.65;;;21.27;;